TAF : OOMS 142300Z 1500/1606 21008KT 8000 SCT030 BECMG 1506/1508 04012KT BECMG 1518/1520 22008KT